Impacts TAF Board INFO
FOR SITUATIONAL AWARENESS. NOT TO BE USED FOR FLIGHT PLANNING PURPOSES.
IDs:

KFLL - Ft Lauderdale-Hollyw, FL, US

Issued at 0926 UTC 23 Jan 2017
Updated at 1040 UTC 23 Jan 2017
Potential Impact None Slight Moderate High
Time0953Z 23/11Z 23/12Z 23/13Z 23/14Z 23/15Z 23/16Z 23/17Z 23/18Z 23/19Z 23/20Z 23/21Z 23/22Z 23/23Z
Type OBS PRVL PRVL PRVL PRVL PRVL PRVL PRVL PRVL PRVL PRVL PRVL PRVL PRVL
VIS 10 >6 >6 >6 >6 >6 >6 >6 >6 >6 >6 >6 >6 >6
CIG 49 60 50 50 50 50 50 50 250 250 250 250 250 250
Cover OVC BKN BKN BKN BKN BKN BKN BKN BKN BKN BKN BKN BKN BKN
FltCat VFR VFR VFR VFR VFR VFR VFR VFR VFR VFR VFR VFR VFR VFR
WX -- VCTS -- -- -- -- -- -- -- -- -- -- -- --
WDir 270 220 260 260 260 260 260 260 280 280 280 280 280 280
WSpd 15 15 15 15 15 15 15 15 18 18 18 18 18 18
WGst 19 25 25 25 25 25 25 25 28 28 28 28 28 28

Raw TAF
KFLL 230926Z 2309/2406 22015G25KT P6SM VCTS SCT025CB BKN060 BKN100
  FM231200 26015G25KT P6SM SCT040 BKN050 BKN250
  FM231800 28018G28KT P6SM FEW030 SCT100 BKN250
  FM240000 29012G20KT P6SM FEW050 SCT250


Raw METAR
KFLL 230953Z 27015G19KT 10SM BKN049 OVC080 21/19 A2955 RMK AO2 LTG DSNT E-S RAE19B39E46 TSB03E18 SLP005 P0004 T02110194
KFLL 230919Z 24008KT 10SM BKN035CB OVC045 21/19 A2955 RMK AO2 LTG DSNT NE-S RAE19 TSB03E18 CB DSNT NE-SE P0004 T02060194
KFLL 230909Z 25013KT 9SM -TSRA BKN035CB OVC045 21/19 A2955 RMK AO2 LTG DSNT ALQDS TSB03 OCNL LTGICCA OHD-NE-SE TS OHD-NE-SE MOV E P0004 T02060194
KFLL 230902Z 26011KT 6SM R10L/6000VP6000FT VCTS -RA BR FEW024CB BKN035 OVC050 21/19 A2955 RMK AO2 LTG DSNT ALQDS FRQ LTGICCA OHD-NE-SE TS OHD-NE-SE MOV E P0004 T02060194
KFLL 230848Z 27018KT 2SM R10L/3500VP6000FT VCTS +RA BR FEW010 BKN024CB OVC047 20/19 A2956 RMK AO2 PK WND 21037/0815 WSHFT 0811 LTG DSNT ALQDS TSB15E46 CONS LTGICCACG OHD TS OHD MOV E CB OHD-ALQDS MOV E P0048
KFLL 230842Z 28012G25KT 1 1/2SM R10L/6000VP6000FT +TSRA BR FEW010 BKN028CB OVC044 20/19 A2954 RMK AO2 PK WND 21037/0815 WSHFT 0811 LTG DSNT ALQDS TSB15 CONS LTGICCACG OHD TS OHD MOV E CB OHD-ALQDS MOV E P0038 T02000189
KFLL 230819Z 26027G37KT 8SM -TSRA SCT029CB BKN037 OVC070 25/22 A2953 RMK AO2 PK WND 21037/0815 LTG DSNT W-NE TSB15 PRESRR OCNL LTGICCG N-NE AND W-NW TS N-NE AND W-NW MOV E CB OHD-ALQDS MOV E P0001 T02500217
KFLL 230757Z 22017G31KT 9SM VCTS -RA BKN026CB OVC030 26/21 A2951 RMK AO2 PK WND 21031/0755 LTG DSNT W-NE OCNL LTGIC W-NW TS W-NW MOV NE CB OHD-ALQDS MOV NE P0000 T02560211
KFLL 230753Z 22018G28KT 9SM -RA BKN026CB OVC032 26/21 A2952 RMK AO2 PK WND 21032/0727 LTG DSNT W-N RAB50 SLP997 CB OHD-ALQDS MOV NE P0000 T02560211

METAR Board
Radar Display
Forecast Discussion

FOR SITUATIONAL AWARENESS. NOT TO BE USED FOR FLIGHT PLANNING PURPOSES.

Page loaded:  10:40 UTC  |   02:40 AM Pacific  |   03:40 AM Mountain  |   04:40 AM Central  |   05:40 AM Eastern

 

ADVISORIES

FORECASTS

FORECASTS

OBSERVATIONS

USER TOOLS

ABOUT US